sensor_id;sensor_type;location;lat;lon;timestamp;pressure;altitude;pressure_sealevel;temperature;humidity
13968;BME280;39536;52.198;9.920;2022-07-10T00:02:17;101495.41;;;13.73;74.76
13968;BME280;39536;52.198;9.920;2022-07-10T00:04:43;101490.78;;;13.81;75.07
13968;BME280;39536;52.198;9.920;2022-07-10T00:07:10;101488.19;;;13.81;74.81
13968;BME280;39536;52.198;9.920;2022-07-10T00:09:36;101482.28;;;13.75;75.15
13968;BME280;39536;52.198;9.920;2022-07-10T00:12:05;101482.03;;;13.82;74.79
13968;BME280;39536;52.198;9.920;2022-07-10T00:14:31;101492.38;;;13.87;74.77
13968;BME280;39536;52.198;9.920;2022-07-10T00:16:58;101487.22;;;13.84;74.78
13968;BME280;39536;52.198;9.920;2022-07-10T00:19:25;101492.28;;;13.90;74.53
13968;BME280;39536;52.198;9.920;2022-07-10T00:21:51;101485.38;;;13.88;74.49
13968;BME280;39536;52.198;9.920;2022-07-10T00:24:18;101483.97;;;13.76;74.96
13968;BME280;39536;52.198;9.920;2022-07-10T00:26:44;101499.00;;;13.71;74.84
13968;BME280;39536;52.198;9.920;2022-07-10T00:29:14;101492.78;;;13.73;75.04
13968;BME280;39536;52.198;9.920;2022-07-10T00:31:41;101479.56;;;13.78;75.03
13968;BME280;39536;52.198;9.920;2022-07-10T00:34:07;101483.78;;;13.82;74.69
13968;BME280;39536;52.198;9.920;2022-07-10T00:36:34;101481.13;;;13.83;74.49
13968;BME280;39536;52.198;9.920;2022-07-10T00:39:00;101476.19;;;13.74;74.74
13968;BME280;39536;52.198;9.920;2022-07-10T00:41:27;101470.38;;;13.65;75.04
13968;BME280;39536;52.198;9.920;2022-07-10T00:43:54;101472.00;;;13.67;75.04
13968;BME280;39536;52.198;9.920;2022-07-10T00:46:23;101466.94;;;13.62;75.33
13968;BME280;39536;52.198;9.920;2022-07-10T00:48:50;101477.59;;;13.56;75.57
13968;BME280;39536;52.198;9.920;2022-07-10T00:51:18;101491.59;;;13.55;75.53
13968;BME280;39536;52.198;9.920;2022-07-10T00:53:46;101474.31;;;13.48;76.30
13968;BME280;39536;52.198;9.920;2022-07-10T00:56:15;101476.91;;;13.50;75.91
13968;BME280;39536;52.198;9.920;2022-07-10T00:58:43;101470.75;;;13.52;76.06
13968;BME280;39536;52.198;9.920;2022-07-10T01:01:10;101475.25;;;13.47;75.71
13968;BME280;39536;52.198;9.920;2022-07-10T01:03:38;101468.31;;;13.46;76.32
13968;BME280;39536;52.198;9.920;2022-07-10T01:06:05;101467.63;;;13.39;76.37
13968;BME280;39536;52.198;9.920;2022-07-10T01:08:32;101459.66;;;13.43;76.28
13968;BME280;39536;52.198;9.920;2022-07-10T01:10:59;101459.53;;;13.47;75.45
13968;BME280;39536;52.198;9.920;2022-07-10T01:13:26;101466.38;;;13.51;75.24
13968;BME280;39536;52.198;9.920;2022-07-10T01:15:53;101465.16;;;13.63;74.90
13968;BME280;39536;52.198;9.920;2022-07-10T01:18:20;101461.72;;;13.61;75.19
13968;BME280;39536;52.198;9.920;2022-07-10T01:20:51;101454.94;;;13.55;75.35
13968;BME280;39536;52.198;9.920;2022-07-10T01:23:18;101457.75;;;13.49;75.37
13968;BME280;39536;52.198;9.920;2022-07-10T01:25:44;101456.28;;;13.39;75.95
13968;BME280;39536;52.198;9.920;2022-07-10T01:28:11;101455.50;;;13.35;75.63
13968;BME280;39536;52.198;9.920;2022-07-10T01:30:38;101452.09;;;13.33;75.93
13968;BME280;39536;52.198;9.920;2022-07-10T01:33:04;101445.72;;;13.42;75.81
13968;BME280;39536;52.198;9.920;2022-07-10T01:35:31;101442.25;;;13.42;75.48
13968;BME280;39536;52.198;9.920;2022-07-10T01:37:59;101442.50;;;13.34;75.48
13968;BME280;39536;52.198;9.920;2022-07-10T01:40:26;101444.38;;;13.29;75.87
13968;BME280;39536;52.198;9.920;2022-07-10T01:42:52;101444.97;;;13.38;75.65
13968;BME280;39536;52.198;9.920;2022-07-10T01:45:19;101439.81;;;13.35;75.58
13968;BME280;39536;52.198;9.920;2022-07-10T01:47:45;101454.03;;;13.27;75.35
13968;BME280;39536;52.198;9.920;2022-07-10T01:50:12;101436.44;;;13.32;75.45
13968;BME280;39536;52.198;9.920;2022-07-10T01:52:39;101437.06;;;13.40;75.61
13968;BME280;39536;52.198;9.920;2022-07-10T01:55:08;101434.41;;;13.42;75.35
13968;BME280;39536;52.198;9.920;2022-07-10T01:57:35;101426.47;;;13.45;74.89
13968;BME280;39536;52.198;9.920;2022-07-10T02:00:02;101426.53;;;13.42;75.31
13968;BME280;39536;52.198;9.920;2022-07-10T02:02:29;101428.41;;;13.38;75.20
13968;BME280;39536;52.198;9.920;2022-07-10T02:04:56;101428.03;;;13.50;74.49
13968;BME280;39536;52.198;9.920;2022-07-10T02:07:21;101416.94;;;13.42;74.75
13968;BME280;39536;52.198;9.920;2022-07-10T02:09:51;101420.72;;;13.33;75.30
13968;BME280;39536;52.198;9.920;2022-07-10T02:12:19;101431.28;;;13.29;75.40
13968;BME280;39536;52.198;9.920;2022-07-10T02:14:45;101429.53;;;13.29;76.23
13968;BME280;39536;52.198;9.920;2022-07-10T02:17:12;101421.81;;;13.25;76.65
13968;BME280;39536;52.198;9.920;2022-07-10T02:19:39;101420.72;;;13.32;76.92
13968;BME280;39536;52.198;9.920;2022-07-10T02:22:05;101418.03;;;13.35;76.82
13968;BME280;39536;52.198;9.920;2022-07-10T02:24:32;101405.78;;;13.35;77.21
13968;BME280;39536;52.198;9.920;2022-07-10T02:26:58;101413.81;;;13.31;77.42
13968;BME280;39536;52.198;9.920;2022-07-10T02:29:26;101402.47;;;13.30;77.81
13968;BME280;39536;52.198;9.920;2022-07-10T02:31:53;101393.91;;;13.25;78.25
13968;BME280;39536;52.198;9.920;2022-07-10T02:34:20;101402.47;;;13.30;78.43
13968;BME280;39536;52.198;9.920;2022-07-10T02:36:46;101399.88;;;13.30;78.15
13968;BME280;39536;52.198;9.920;2022-07-10T02:39:13;101427.75;;;13.30;78.02
13968;BME280;39536;52.198;9.920;2022-07-10T02:41:39;101404.31;;;13.27;78.01
13968;BME280;39536;52.198;9.920;2022-07-10T02:44:06;101399.19;;;13.22;78.16
13968;BME280;39536;52.198;9.920;2022-07-10T02:46:34;101402.56;;;13.27;78.26
13968;BME280;39536;52.198;9.920;2022-07-10T02:49:01;101404.31;;;13.27;78.25
13968;BME280;39536;52.198;9.920;2022-07-10T02:51:27;101397.38;;;13.26;78.40
13968;BME280;39536;52.198;9.920;2022-07-10T02:53:54;101391.34;;;13.22;78.61
13968;BME280;39536;52.198;9.920;2022-07-10T02:56:21;101398.19;;;13.28;78.28
13968;BME280;39536;52.198;9.920;2022-07-10T02:58:47;101410.31;;;13.30;78.22
13968;BME280;39536;52.198;9.920;2022-07-10T03:01:14;101400.84;;;13.26;78.50
13968;BME280;39536;52.198;9.920;2022-07-10T03:03:42;101396.44;;;13.27;78.45
13968;BME280;39536;52.198;9.920;2022-07-10T03:06:09;101400.13;;;13.20;78.92
13968;BME280;39536;52.198;9.920;2022-07-10T03:08:35;101389.66;;;13.20;78.97
13968;BME280;39536;52.198;9.920;2022-07-10T03:11:02;101409.88;;;13.14;79.09
13968;BME280;39536;52.198;9.920;2022-07-10T03:13:28;101395.16;;;13.12;79.83
13968;BME280;39536;52.198;9.920;2022-07-10T03:15:55;101389.16;;;13.08;80.18
13968;BME280;39536;52.198;9.920;2022-07-10T03:18:22;101379.72;;;13.03;80.63
13968;BME280;39536;52.198;9.920;2022-07-10T03:20:49;101376.28;;;13.01;80.57
13968;BME280;39536;52.198;9.920;2022-07-10T03:23:16;101383.19;;;13.03;81.05
13968;BME280;39536;52.198;9.920;2022-07-10T03:25:43;101371.91;;;13.01;81.38
13968;BME280;39536;52.198;9.920;2022-07-10T03:28:09;101381.75;;;12.93;82.25
13968;BME280;39536;52.198;9.920;2022-07-10T03:30:36;101379.97;;;12.93;82.56
13968;BME280;39536;52.198;9.920;2022-07-10T03:33:03;101384.53;;;12.87;83.23
13968;BME280;39536;52.198;9.920;2022-07-10T03:35:29;101385.13;;;12.97;83.50
13968;BME280;39536;52.198;9.920;2022-07-10T03:37:58;101384.13;;;13.01;83.79
13968;BME280;39536;52.198;9.920;2022-07-10T03:40:25;101392.03;;;12.99;83.71
13968;BME280;39536;52.198;9.920;2022-07-10T03:42:52;101398.78;;;13.06;83.83
13968;BME280;39536;52.198;9.920;2022-07-10T03:45:19;101403.09;;;13.07;83.88
13968;BME280;39536;52.198;9.920;2022-07-10T03:47:45;101398.22;;;12.95;84.79
13968;BME280;39536;52.198;9.920;2022-07-10T03:50:12;101394.72;;;12.96;85.06
13968;BME280;39536;52.198;9.920;2022-07-10T03:52:39;101392.22;;;12.91;85.12
13968;BME280;39536;52.198;9.920;2022-07-10T03:55:08;101395.06;;;12.84;85.13
13968;BME280;39536;52.198;9.920;2022-07-10T03:57:34;101397.38;;;12.94;85.44
13968;BME280;39536;52.198;9.920;2022-07-10T04:00:18;101400.63;;;13.03;84.95
13968;BME280;39536;52.198;9.920;2022-07-10T04:02:47;101395.41;;;13.03;84.24
13968;BME280;39536;52.198;9.920;2022-07-10T04:05:13;101394.50;;;13.04;84.58
13968;BME280;39536;52.198;9.920;2022-07-10T04:07:40;101391.16;;;12.99;84.94
13968;BME280;39536;52.198;9.920;2022-07-10T04:10:09;101396.34;;;13.00;84.54
13968;BME280;39536;52.198;9.920;2022-07-10T04:12:36;101393.41;;;13.11;84.30
13968;BME280;39536;52.198;9.920;2022-07-10T04:15:03;101388.84;;;13.17;84.26
13968;BME280;39536;52.198;9.920;2022-07-10T04:17:30;101396.69;;;13.17;83.56
13968;BME280;39536;52.198;9.920;2022-07-10T04:19:57;101396.25;;;13.03;84.07
13968;BME280;39536;52.198;9.920;2022-07-10T04:22:24;101410.75;;;13.15;84.28
13968;BME280;39536;52.198;9.920;2022-07-10T04:24:51;101379.28;;;13.16;83.58
13968;BME280;39536;52.198;9.920;2022-07-10T04:27:19;101390.69;;;13.14;83.58
13968;BME280;39536;52.198;9.920;2022-07-10T04:29:46;101386.28;;;13.16;84.02
13968;BME280;39536;52.198;9.920;2022-07-10T04:32:13;101394.97;;;13.18;83.62
13968;BME280;39536;52.198;9.920;2022-07-10T04:34:40;101391.44;;;13.19;83.13
13968;BME280;39536;52.198;9.920;2022-07-10T04:37:06;101385.25;;;13.22;83.35
13968;BME280;39536;52.198;9.920;2022-07-10T04:39:34;101380.91;;;13.21;83.64
13968;BME280;39536;52.198;9.920;2022-07-10T04:42:01;101392.28;;;13.20;83.63
13968;BME280;39536;52.198;9.920;2022-07-10T04:44:30;101379.44;;;13.12;83.44
13968;BME280;39536;52.198;9.920;2022-07-10T04:46:56;101387.06;;;13.20;83.05
13968;BME280;39536;52.198;9.920;2022-07-10T04:49:23;101395.75;;;13.20;82.99
13968;BME280;39536;52.198;9.920;2022-07-10T04:51:50;101392.09;;;13.27;82.97
13968;BME280;39536;52.198;9.920;2022-07-10T04:54:16;101409.34;;;13.33;82.56
13968;BME280;39536;52.198;9.920;2022-07-10T04:56:43;101400.63;;;13.34;82.23
13968;BME280;39536;52.198;9.920;2022-07-10T04:59:10;101396.38;;;13.30;82.08
13968;BME280;39536;52.198;9.920;2022-07-10T05:01:38;101391.84;;;13.35;81.92
13968;BME280;39536;52.198;9.920;2022-07-10T05:04:04;101403.50;;;13.25;82.66
13968;BME280;39536;52.198;9.920;2022-07-10T05:06:31;101402.66;;;13.23;82.00
13968;BME280;39536;52.198;9.920;2022-07-10T05:08:58;101396.44;;;13.28;81.88
13968;BME280;39536;52.198;9.920;2022-07-10T05:11:25;101391.94;;;13.32;81.81
13968;BME280;39536;52.198;9.920;2022-07-10T05:13:52;101390.16;;;13.34;81.52
13968;BME280;39536;52.198;9.920;2022-07-10T05:16:19;101375.59;;;13.25;81.75
13968;BME280;39536;52.198;9.920;2022-07-10T05:18:47;101367.47;;;13.34;81.63
13968;BME280;39536;52.198;9.920;2022-07-10T05:21:13;101415.69;;;13.26;81.67
13968;BME280;39536;52.198;9.920;2022-07-10T05:23:40;101410.34;;;13.29;82.31
13968;BME280;39536;52.198;9.920;2022-07-10T05:26:07;101414.47;;;13.37;81.17
13968;BME280;39536;52.198;9.920;2022-07-10T05:28:33;101417.69;;;13.46;80.97
13968;BME280;39536;52.198;9.920;2022-07-10T05:31:00;101414.13;;;13.48;80.72
13968;BME280;39536;52.198;9.920;2022-07-10T05:33:26;101410.28;;;13.60;80.67
13968;BME280;39536;52.198;9.920;2022-07-10T05:35:55;101407.94;;;13.51;80.44
13968;BME280;39536;52.198;9.920;2022-07-10T05:38:22;101416.06;;;13.43;80.45
13968;BME280;39536;52.198;9.920;2022-07-10T05:40:49;101403.75;;;13.45;80.50
13968;BME280;39536;52.198;9.920;2022-07-10T05:43:16;101414.97;;;13.49;79.92
13968;BME280;39536;52.198;9.920;2022-07-10T05:45:42;101402.59;;;13.55;79.49
13968;BME280;39536;52.198;9.920;2022-07-10T05:48:09;101406.16;;;13.53;78.89
13968;BME280;39536;52.198;9.920;2022-07-10T05:50:36;101406.84;;;13.58;79.22
13968;BME280;39536;52.198;9.920;2022-07-10T05:53:04;101405.22;;;13.55;78.92
13968;BME280;39536;52.198;9.920;2022-07-10T05:55:30;101407.66;;;13.60;79.03
13968;BME280;39536;52.198;9.920;2022-07-10T05:57:57;101409.44;;;13.59;78.85
13968;BME280;39536;52.198;9.920;2022-07-10T06:00:24;101410.47;;;13.54;79.16
13968;BME280;39536;52.198;9.920;2022-07-10T06:02:51;101413.94;;;13.54;79.31
13968;BME280;39536;52.198;9.920;2022-07-10T06:05:17;101403.28;;;13.60;79.73
13968;BME280;39536;52.198;9.920;2022-07-10T06:07:44;101415.69;;;13.55;78.98
13968;BME280;39536;52.198;9.920;2022-07-10T06:10:12;101407.81;;;13.55;79.67
13968;BME280;39536;52.198;9.920;2022-07-10T06:12:39;101408.41;;;13.63;79.39
13968;BME280;39536;52.198;9.920;2022-07-10T06:15:09;101404.72;;;13.71;79.24
13968;BME280;39536;52.198;9.920;2022-07-10T06:17:35;101413.91;;;13.84;78.30
13968;BME280;39536;52.198;9.920;2022-07-10T06:20:02;101403.31;;;13.87;77.98
13968;BME280;39536;52.198;9.920;2022-07-10T06:22:29;101400.34;;;13.98;78.17
13968;BME280;39536;52.198;9.920;2022-07-10T06:25:00;101405.53;;;13.99;77.99
13968;BME280;39536;52.198;9.920;2022-07-10T06:27:28;101405.75;;;13.93;77.48
13968;BME280;39536;52.198;9.920;2022-07-10T06:29:55;101436.13;;;13.99;76.95
13968;BME280;39536;52.198;9.920;2022-07-10T06:32:22;101421.19;;;14.01;77.23
13968;BME280;39536;52.198;9.920;2022-07-10T06:34:50;101414.06;;;14.06;77.19
13968;BME280;39536;52.198;9.920;2022-07-10T06:37:16;101438.13;;;14.17;77.00
13968;BME280;39536;52.198;9.920;2022-07-10T06:39:45;101429.56;;;14.12;76.77
13968;BME280;39536;52.198;9.920;2022-07-10T06:42:12;101411.03;;;14.18;76.49
13968;BME280;39536;52.198;9.920;2022-07-10T06:44:40;101426.59;;;14.23;76.65
13968;BME280;39536;52.198;9.920;2022-07-10T06:47:08;101415.09;;;14.27;76.27
13968;BME280;39536;52.198;9.920;2022-07-10T06:49:53;101393.44;;;14.47;74.51
13968;BME280;39536;52.198;9.920;2022-07-10T06:52:19;101420.88;;;14.37;74.57
13968;BME280;39536;52.198;9.920;2022-07-10T06:54:46;101416.66;;;14.32;74.79
13968;BME280;39536;52.198;9.920;2022-07-10T06:57:13;101429.44;;;14.42;74.32
13968;BME280;39536;52.198;9.920;2022-07-10T06:59:41;101384.16;;;14.63;74.23
13968;BME280;39536;52.198;9.920;2022-07-10T07:02:08;101399.94;;;14.87;73.28
13968;BME280;39536;52.198;9.920;2022-07-10T07:04:34;101412.69;;;14.96;70.70
13968;BME280;39536;52.198;9.920;2022-07-10T07:07:02;101402.13;;;14.97;70.33
13968;BME280;39536;52.198;9.920;2022-07-10T07:09:28;101384.59;;;14.99;71.22
13968;BME280;39536;52.198;9.920;2022-07-10T07:11:55;101404.38;;;15.08;71.43
13968;BME280;39536;52.198;9.920;2022-07-10T07:14:22;101418.91;;;15.17;70.60
13968;BME280;39536;52.198;9.920;2022-07-10T07:16:50;101395.97;;;15.22;71.72
13968;BME280;39536;52.198;9.920;2022-07-10T07:19:25;101404.41;;;15.30;71.33
13968;BME280;39536;52.198;9.920;2022-07-10T07:21:57;101390.00;;;15.18;70.97
13968;BME280;39536;52.198;9.920;2022-07-10T07:24:41;101409.16;;;15.20;71.69
13968;BME280;39536;52.198;9.920;2022-07-10T07:27:08;101415.19;;;15.22;71.05
13968;BME280;39536;52.198;9.920;2022-07-10T07:29:35;101407.53;;;15.40;70.29
13968;BME280;39536;52.198;9.920;2022-07-10T07:32:04;101396.94;;;15.19;70.82
13968;BME280;39536;52.198;9.920;2022-07-10T07:34:30;101381.56;;;15.32;70.27
13968;BME280;39536;52.198;9.920;2022-07-10T07:36:57;101393.22;;;15.48;69.79
13968;BME280;39536;52.198;9.920;2022-07-10T07:39:24;101389.91;;;15.43;68.77
13968;BME280;39536;52.198;9.920;2022-07-10T07:41:51;101404.31;;;15.55;68.90
13968;BME280;39536;52.198;9.920;2022-07-10T07:44:17;101416.06;;;15.45;68.75
13968;BME280;39536;52.198;9.920;2022-07-10T07:46:44;101401.59;;;15.35;68.59
13968;BME280;39536;52.198;9.920;2022-07-10T07:49:12;101405.78;;;15.17;68.91
13968;BME280;39536;52.198;9.920;2022-07-10T07:51:39;101410.69;;;15.26;69.19
13968;BME280;39536;52.198;9.920;2022-07-10T07:54:05;101392.44;;;15.45;68.93
13968;BME280;39536;52.198;9.920;2022-07-10T07:56:32;101392.72;;;15.61;68.63
13968;BME280;39536;52.198;9.920;2022-07-10T07:58:58;101399.56;;;15.65;67.04
13968;BME280;39536;52.198;9.920;2022-07-10T08:01:25;101391.00;;;15.60;67.77
13968;BME280;39536;52.198;9.920;2022-07-10T08:03:52;101397.69;;;15.68;68.83
13968;BME280;39536;52.198;9.920;2022-07-10T08:06:20;101394.34;;;15.63;68.18
13968;BME280;39536;52.198;9.920;2022-07-10T08:08:47;101385.72;;;15.83;68.18
13968;BME280;39536;52.198;9.920;2022-07-10T08:11:13;101383.72;;;15.68;67.60
13968;BME280;39536;52.198;9.920;2022-07-10T08:13:40;101401.75;;;15.54;67.72
13968;BME280;39536;52.198;9.920;2022-07-10T08:16:08;101404.97;;;15.38;67.86
13968;BME280;39536;52.198;9.920;2022-07-10T08:18:35;101401.94;;;15.49;68.25
13968;BME280;39536;52.198;9.920;2022-07-10T08:21:02;101395.34;;;15.61;68.40
13968;BME280;39536;52.198;9.920;2022-07-10T08:23:30;101405.13;;;15.79;67.29
13968;BME280;39536;52.198;9.920;2022-07-10T08:25:56;101392.97;;;15.99;67.51
13968;BME280;39536;52.198;9.920;2022-07-10T08:28:23;101401.97;;;15.93;66.61
13968;BME280;39536;52.198;9.920;2022-07-10T08:30:49;101392.72;;;16.05;66.20
13968;BME280;39536;52.198;9.920;2022-07-10T08:33:16;101401.06;;;16.14;66.31
13968;BME280;39536;52.198;9.920;2022-07-10T08:35:43;101387.59;;;16.43;65.39
13968;BME280;39536;52.198;9.920;2022-07-10T08:38:09;101393.16;;;16.35;65.83
13968;BME280;39536;52.198;9.920;2022-07-10T08:40:38;101399.94;;;16.00;65.41
13968;BME280;39536;52.198;9.920;2022-07-10T08:43:05;101388.63;;;15.98;65.35
13968;BME280;39536;52.198;9.920;2022-07-10T08:45:32;101426.91;;;15.83;65.26
13968;BME280;39536;52.198;9.920;2022-07-10T08:48:03;101400.06;;;15.97;64.92
13968;BME280;39536;52.198;9.920;2022-07-10T08:50:32;101399.16;;;16.18;63.40
13968;BME280;39536;52.198;9.920;2022-07-10T08:53:02;101397.13;;;16.25;61.94
13968;BME280;39536;52.198;9.920;2022-07-10T08:55:30;101394.56;;;16.23;62.02
13968;BME280;39536;52.198;9.920;2022-07-10T08:57:59;101401.97;;;16.13;61.63
13968;BME280;39536;52.198;9.920;2022-07-10T09:00:27;101374.00;;;16.33;60.22
13968;BME280;39536;52.198;9.920;2022-07-10T09:02:54;101387.25;;;16.50;58.91
13968;BME280;39536;52.198;9.920;2022-07-10T09:05:22;101397.13;;;16.45;58.95
13968;BME280;39536;52.198;9.920;2022-07-10T09:07:49;101390.19;;;16.63;58.40
13968;BME280;39536;52.198;9.920;2022-07-10T09:10:16;101378.84;;;17.02;58.31
13968;BME280;39536;52.198;9.920;2022-07-10T09:12:50;101384.53;;;17.12;58.10
13968;BME280;39536;52.198;9.920;2022-07-10T09:15:20;101374.72;;;16.96;56.84
13968;BME280;39536;52.198;9.920;2022-07-10T09:17:54;101376.50;;;16.96;57.89
13968;BME280;39536;52.198;9.920;2022-07-10T09:20:26;101369.94;;;17.23;57.97
13968;BME280;39536;52.198;9.920;2022-07-10T09:22:55;101361.75;;;17.48;55.93
13968;BME280;39536;52.198;9.920;2022-07-10T09:25:21;101379.38;;;17.46;56.61
13968;BME280;39536;52.198;9.920;2022-07-10T09:27:51;101368.06;;;17.25;57.23
13968;BME280;39536;52.198;9.920;2022-07-10T09:30:32;101385.25;;;16.96;58.37
13968;BME280;39536;52.198;9.920;2022-07-10T09:33:21;101362.63;;;16.72;61.03
13968;BME280;39536;52.198;9.920;2022-07-10T09:35:58;101358.81;;;16.39;62.45
13968;BME280;39536;52.198;9.920;2022-07-10T09:38:50;101375.22;;;16.45;62.33
13968;BME280;39536;52.198;9.920;2022-07-10T09:41:18;101381.28;;;16.47;62.20
13968;BME280;39536;52.198;9.920;2022-07-10T09:43:47;101399.81;;;16.44;61.86
13968;BME280;39536;52.198;9.920;2022-07-10T09:46:16;101382.53;;;16.38;62.17
13968;BME280;39536;52.198;9.920;2022-07-10T09:48:43;101377.00;;;16.44;62.68
13968;BME280;39536;52.198;9.920;2022-07-10T09:51:11;101376.38;;;16.39;62.82
13968;BME280;39536;52.198;9.920;2022-07-10T09:53:39;101376.72;;;16.50;62.97
13968;BME280;39536;52.198;9.920;2022-07-10T09:56:07;101368.25;;;16.44;62.94
13968;BME280;39536;52.198;9.920;2022-07-10T09:58:35;101373.59;;;16.42;63.19
13968;BME280;39536;52.198;9.920;2022-07-10T10:01:03;101361.44;;;16.79;61.67
13968;BME280;39536;52.198;9.920;2022-07-10T10:03:34;101378.13;;;16.98;59.56
13968;BME280;39536;52.198;9.920;2022-07-10T10:06:03;101374.81;;;17.14;58.39
13968;BME280;39536;52.198;9.920;2022-07-10T10:08:34;101358.06;;;17.15;57.58
13968;BME280;39536;52.198;9.920;2022-07-10T10:11:04;101369.16;;;17.21;58.80
13968;BME280;39536;52.198;9.920;2022-07-10T10:13:34;101359.00;;;17.14;59.28
13968;BME280;39536;52.198;9.920;2022-07-10T10:16:02;101362.25;;;17.00;58.46
13968;BME280;39536;52.198;9.920;2022-07-10T10:18:28;101372.31;;;16.92;59.67
13968;BME280;39536;52.198;9.920;2022-07-10T10:20:57;101356.22;;;16.98;59.79
13968;BME280;39536;52.198;9.920;2022-07-10T10:23:23;101357.34;;;17.11;58.52
13968;BME280;39536;52.198;9.920;2022-07-10T10:25:52;101357.84;;;17.19;58.00
13968;BME280;39536;52.198;9.920;2022-07-10T10:28:20;101358.06;;;17.34;58.75
13968;BME280;39536;52.198;9.920;2022-07-10T10:30:50;101347.19;;;17.59;58.69
13968;BME280;39536;52.198;9.920;2022-07-10T10:33:42;101342.66;;;17.80;58.27
13968;BME280;39536;52.198;9.920;2022-07-10T10:36:13;101350.28;;;18.20;59.24
13968;BME280;39536;52.198;9.920;2022-07-10T10:39:03;101349.09;;;18.09;57.72
13968;BME280;39536;52.198;9.920;2022-07-10T10:41:36;101336.97;;;18.39;56.34
13968;BME280;39536;52.198;9.920;2022-07-10T10:44:26;101376.00;;;18.15;55.42
13968;BME280;39536;52.198;9.920;2022-07-10T10:47:04;101327.94;;;17.93;56.14
13968;BME280;39536;52.198;9.920;2022-07-10T10:49:55;101355.44;;;17.70;56.87
13968;BME280;39536;52.198;9.920;2022-07-10T10:52:25;101343.38;;;17.83;57.34
13968;BME280;39536;52.198;9.920;2022-07-10T10:55:08;101363.84;;;17.95;56.12
13968;BME280;39536;52.198;9.920;2022-07-10T10:57:42;101315.75;;;17.73;56.17
13968;BME280;39536;52.198;9.920;2022-07-10T11:00:33;101359.91;;;17.68;56.38
13968;BME280;39536;52.198;9.920;2022-07-10T11:03:21;101384.78;;;18.16;55.88
13968;BME280;39536;52.198;9.920;2022-07-10T11:05:49;101366.09;;;18.20;54.22
13968;BME280;39536;52.198;9.920;2022-07-10T11:08:36;101336.91;;;18.23;54.14
13968;BME280;39536;52.198;9.920;2022-07-10T11:11:36;101363.50;;;18.36;53.87
13968;BME280;39536;52.198;9.920;2022-07-10T11:14:05;101333.88;;;18.31;53.65
13968;BME280;39536;52.198;9.920;2022-07-10T11:16:33;101338.00;;;18.70;54.04
13968;BME280;39536;52.198;9.920;2022-07-10T11:19:00;101348.94;;;18.96;53.10
13968;BME280;39536;52.198;9.920;2022-07-10T11:21:28;101348.94;;;18.80;52.81
13968;BME280;39536;52.198;9.920;2022-07-10T11:24:09;101348.34;;;19.06;51.70
13968;BME280;39536;52.198;9.920;2022-07-10T11:26:47;101332.75;;;18.86;51.61
13968;BME280;39536;52.198;9.920;2022-07-10T11:29:18;101338.28;;;18.81;52.74
13968;BME280;39536;52.198;9.920;2022-07-10T11:31:52;101336.44;;;18.99;52.93
13968;BME280;39536;52.198;9.920;2022-07-10T11:34:19;101338.28;;;18.81;52.54
13968;BME280;39536;52.198;9.920;2022-07-10T11:36:47;101326.28;;;18.58;53.98
13968;BME280;39536;52.198;9.920;2022-07-10T11:39:15;101341.50;;;18.53;54.36
13968;BME280;39536;52.198;9.920;2022-07-10T11:41:43;101336.13;;;18.39;54.34
13968;BME280;39536;52.198;9.920;2022-07-10T11:44:13;101320.72;;;18.14;53.88
13968;BME280;39536;52.198;9.920;2022-07-10T11:46:40;101330.06;;;18.37;53.24
13968;BME280;39536;52.198;9.920;2022-07-10T11:49:09;101352.88;;;18.38;53.34
13968;BME280;39536;52.198;9.920;2022-07-10T11:51:37;101331.50;;;18.27;52.49
13968;BME280;39536;52.198;9.920;2022-07-10T11:54:06;101336.81;;;18.25;53.24
13968;BME280;39536;52.198;9.920;2022-07-10T11:56:36;101339.44;;;18.42;52.79
13968;BME280;39536;52.198;9.920;2022-07-10T11:59:05;101345.41;;;18.46;51.33
13968;BME280;39536;52.198;9.920;2022-07-10T12:01:33;101321.47;;;18.66;50.85
13968;BME280;39536;52.198;9.920;2022-07-10T12:04:02;101328.59;;;18.64;51.84
13968;BME280;39536;52.198;9.920;2022-07-10T12:06:30;101337.59;;;18.78;52.22
13968;BME280;39536;52.198;9.920;2022-07-10T12:09:02;101337.63;;;18.60;52.72
13968;BME280;39536;52.198;9.920;2022-07-10T12:11:28;101352.03;;;18.88;52.13
13968;BME280;39536;52.198;9.920;2022-07-10T12:14:09;101339.22;;;18.96;52.21
13968;BME280;39536;52.198;9.920;2022-07-10T12:16:37;101328.78;;;18.95;52.74
13968;BME280;39536;52.198;9.920;2022-07-10T12:19:05;101355.31;;;18.76;54.39
13968;BME280;39536;52.198;9.920;2022-07-10T12:21:32;101345.34;;;18.48;55.37
13968;BME280;39536;52.198;9.920;2022-07-10T12:23:59;101346.69;;;18.39;56.13
13968;BME280;39536;52.198;9.920;2022-07-10T12:26:32;101349.94;;;18.09;56.61
13968;BME280;39536;52.198;9.920;2022-07-10T12:29:01;101353.69;;;18.05;56.83
13968;BME280;39536;52.198;9.920;2022-07-10T12:31:30;101361.13;;;18.32;56.92
13968;BME280;39536;52.198;9.920;2022-07-10T12:33:59;101349.53;;;18.34;56.66
13968;BME280;39536;52.198;9.920;2022-07-10T12:36:40;101367.25;;;18.15;57.55
13968;BME280;39536;52.198;9.920;2022-07-10T12:39:08;101366.56;;;18.29;57.21
13968;BME280;39536;52.198;9.920;2022-07-10T12:41:34;101374.63;;;18.08;57.92
13968;BME280;39536;52.198;9.920;2022-07-10T12:44:02;101374.53;;;18.10;58.31
13968;BME280;39536;52.198;9.920;2022-07-10T12:46:28;101354.63;;;18.04;58.48
13968;BME280;39536;52.198;9.920;2022-07-10T12:49:03;101380.06;;;17.69;58.49
13968;BME280;39536;52.198;9.920;2022-07-10T12:51:32;101362.25;;;17.74;58.18
13968;BME280;39536;52.198;9.920;2022-07-10T12:53:59;101377.69;;;17.82;58.40
13968;BME280;39536;52.198;9.920;2022-07-10T12:56:29;101362.13;;;17.77;59.21
13968;BME280;39536;52.198;9.920;2022-07-10T12:58:56;101361.41;;;17.91;58.90